Historyczne dane pomiarowe

Dodano dane terminowe – wersja testowa.

Dane z okresu 1951-2019

Wersja bazy: 1.34 [2019-03-16, lista zmian], aktualizacja planowana na 2019-04-15

Dane meteo z obszaru Polski uzyskane na podstawie danych udostępnionych przez Instytut Meteorologii i Gospodarki Wodnej – Państwowy Instytut Badawczy.

 

Wybierz Datę:    

       

TemperaturaWilgotnośćWiatrCiśnienieOpadyŚniegCzas trwania zjawisk
 Stacja t tx tn tng RH VA  wxwx mslp ppp RRR   cm mm wxwxwxwxwxwxwx
2010-07-16 25.0 32.0 17.5 14.5-- 3.3----- 0.0------------
2010-07-17 26.0 32.5 18.5 14.5-- 1.3----- 0.0------------
2010-07-18 25.1 33.5 20.0 16.5-- 4.3----- 1.5------------
2010-07-19 21.0 26.0 18.0 16.5-- 4.3----- 0.0------------
2010-07-20 21.2 27.5 15.5 11.0-- 2.7----- 0.0------------
2010-07-21 23.2 29.0 17.0 12.5-- 4.0----- 0.0------------
2010-07-22 26.0 33.0 18.5 15.5-- 2.0----- 0.0------------
2010-07-23 26.7 34.0 20.5 16.5-- 3.3----- 0.0------------
2010-07-24 25.3 34.0 18.5 16.0-- 3.7----- 0.0------------
2010-07-25 20.1 24.5 17.5 16.5-- 5.3----- 0.4------------
2010-07-26 18.5 22.5 15.0 13.5-- 6.0----- 0.4------------
2010-07-27 19.6 24.5 17.0 15.5-- 7.3----- 12.7------------
2010-07-28 20.6 25.5 17.0 14.0-- 4.7----- 0.0------------
2010-07-29 17.3 21.0 14.0 10.5-- 5.7----- 12.1------------
2010-07-30 20.3 27.5 13.0 11.0-- 3.7----- 0.0------------
2010-07-31 20.2 27.0 16.0 13.0-- 5.0----- 2.5------------
2010-08-01 22.2 29.0 16.0 14.4-- 4.7----- 0.3------------
2010-08-02 22.2 29.5 15.0 12.5-- 3.0----- 0.0------------
2010-08-03 24.5 32.0 17.5 15.6-- 4.7----- 0.0------------
2010-08-04 20.6 26.5 18.0 17.4-- 6.3----- 1.6------------
2010-08-05 19.8 25.0 15.5 14.8-- 4.7----- 0.0------------
2010-08-06 22.7 30.5 15.0 12.7-- 5.7----- 0.0------------
2010-08-07 25.2 34.0 18.5 17.8-- 4.3----- 2.8------------
2010-08-08 22.4 29.0 19.0 18.0-- 4.3----- 0.0------------
2010-08-09 19.3 25.0 13.5 11.8-- 4.0----- 0.0------------
2010-08-10 19.4 26.5 14.0 12.7-- 3.7----- 2.5------------
2010-08-11 20.6 28.0 13.5 12.4-- 2.3----- 0.0------------
2010-08-12 22.9 30.5 15.5 13.9-- 2.3----- 2.4------------
2010-08-13 24.6 33.0 18.5 15.8-- 2.0----- 17.7------------
2010-08-14 26.2 35.5 18.5 18.2-- 1.7----- 0.0------------
185.4 ms

 

Źródłem pochodzenia danych jest Instytut Meteorologii i Gospodarki Wodnej – Państwowy Instytut Badawczy. Dane Instytutu Meteorologii i Gospodarki Wodnej – Państwowego Instytutu Badawczego zostały przetworzone.

Dane źródłowe można odnaleźć na stronie https://dane.imgw.pl